createdAt,value
2023-02-09T00:02:53.292Z,100.00
2023-02-09T00:07:58.428Z,100.00
2023-02-09T00:13:16.079Z,100.00
2023-02-09T00:18:20.296Z,100.00
2023-02-09T00:23:26.202Z,100.00
2023-02-09T00:28:30.720Z,100.00
2023-02-09T00:33:34.579Z,100.00
2023-02-09T00:38:40.376Z,100.00
2023-02-09T00:43:44.239Z,100.00
2023-02-09T00:48:47.990Z,100.00
2023-02-09T00:53:53.091Z,100.00
2023-02-09T00:58:56.867Z,100.00
2023-02-09T01:04:01.988Z,100.00
2023-02-09T01:09:07.080Z,100.00
2023-02-09T01:14:12.003Z,100.00
2023-02-09T01:19:15.762Z,100.00
2023-02-09T01:24:20.892Z,100.00
2023-02-09T01:29:25.476Z,100.00
2023-02-09T01:34:29.232Z,100.00
2023-02-09T01:39:34.497Z,100.00
2023-02-09T01:45:14.612Z,100.00
2023-02-09T01:50:18.998Z,100.00
2023-02-09T01:55:27.390Z,100.00
2023-02-09T02:00:31.301Z,100.00
2023-02-09T02:05:37.976Z,100.00
2023-02-09T02:10:43.243Z,100.00
2023-02-09T02:15:58.986Z,100.00
2023-02-09T02:21:31.966Z,100.00
2023-02-09T02:26:52.697Z,100.00
2023-02-09T02:32:24.506Z,100.00
2023-02-09T02:37:39.278Z,100.00
2023-02-09T02:42:52.123Z,100.00
2023-02-09T02:48:03.327Z,100.00
2023-02-09T02:53:09.946Z,100.00
2023-02-09T02:58:16.084Z,100.00
2023-02-09T03:09:09.090Z,100.00
2023-02-09T03:14:26.170Z,100.00
2023-02-09T03:19:37.522Z,100.00
2023-02-09T03:24:49.241Z,100.00
2023-02-09T03:29:57.229Z,100.00
2023-02-09T03:35:01.557Z,100.00
2023-02-09T03:40:07.666Z,100.00
2023-02-09T03:45:11.470Z,100.00
2023-02-09T03:50:15.401Z,100.00
2023-02-09T03:55:20.559Z,100.00
2023-02-09T04:00:24.504Z,100.00
2023-02-09T04:05:28.196Z,100.00
2023-02-09T04:10:33.373Z,100.00
2023-02-09T04:15:37.757Z,100.00
2023-02-09T04:20:41.545Z,100.00
2023-02-09T04:25:46.886Z,100.00
2023-02-09T04:30:53.904Z,100.00
2023-02-09T04:35:58.289Z,100.00
2023-02-09T04:41:04.785Z,100.00
2023-02-09T04:46:13.872Z,100.00
2023-02-09T04:51:17.768Z,100.00
2023-02-09T04:56:22.924Z,100.00
2023-02-09T05:01:27.364Z,100.00
2023-02-09T05:06:31.182Z,100.00
2023-02-09T05:11:36.432Z,100.00
2023-02-09T05:16:40.222Z,100.00
2023-02-09T05:21:44.037Z,100.00
2023-02-09T05:26:49.305Z,100.00
2023-02-09T05:31:53.091Z,100.00
2023-02-09T05:36:56.857Z,100.00
2023-02-09T05:42:17.339Z,100.00
2023-02-09T05:47:23.306Z,100.00
2023-02-09T05:52:27.103Z,100.00
2023-02-09T05:57:32.229Z,100.00
2023-02-09T06:02:36.194Z,100.00
2023-02-09T06:07:40.122Z,100.00
2023-02-09T06:12:45.366Z,100.00
2023-02-09T06:17:49.221Z,100.00
2023-02-09T06:22:52.881Z,100.00
2023-02-09T06:27:58.109Z,100.00
2023-02-09T06:33:01.868Z,100.00
2023-02-09T06:38:05.615Z,100.00
2023-02-09T06:43:10.719Z,100.00
2023-02-09T06:48:14.562Z,100.00
2023-02-09T06:53:18.840Z,100.00
2023-02-09T06:58:24.184Z,100.00
2023-02-09T07:03:27.989Z,100.00
2023-02-09T07:08:31.840Z,100.00
2023-02-09T07:13:37.280Z,100.00
2023-02-09T07:18:41.469Z,100.00
2023-02-09T07:23:45.944Z,86.11
2023-02-09T07:28:51.049Z,72.35
2023-02-09T07:33:55.822Z,75.02
2023-02-09T07:38:59.726Z,72.44
2023-02-09T07:44:05.076Z,63.51
2023-02-09T07:49:09.125Z,57.68
2023-02-09T07:54:14.419Z,59.39
2023-02-09T07:59:19.609Z,58.19
2023-02-09T08:04:24.100Z,60.60
2023-02-09T08:09:29.297Z,58.19
2023-02-09T08:14:39.991Z,56.78
2023-02-09T08:19:44.193Z,57.29
2023-02-09T08:24:48.005Z,55.74
2023-02-09T08:29:53.549Z,56.07
2023-02-09T08:34:57.428Z,54.77
2023-02-09T08:40:01.152Z,56.74
2023-02-09T08:45:06.671Z,56.26
2023-02-09T08:50:10.951Z,57.22
2023-02-09T08:55:14.792Z,59.84
2023-02-09T09:00:20.880Z,58.29
2023-02-09T09:05:24.595Z,58.57
2023-02-09T09:10:28.419Z,60.78
2023-02-09T09:15:33.507Z,60.25
2023-02-09T09:20:40.214Z,61.16
2023-02-09T09:25:44.703Z,59.60
2023-02-09T09:30:50.223Z,59.33
2023-02-09T09:35:53.986Z,57.82
2023-02-09T09:40:57.816Z,56.63
2023-02-09T09:46:03.691Z,54.18
2023-02-09T09:51:14.235Z,53.81
2023-02-09T09:56:21.589Z,53.07
2023-02-09T10:01:28.716Z,52.03
2023-02-09T10:06:33.884Z,50.15
2023-02-09T10:11:41.052Z,48.19
2023-02-09T10:16:46.904Z,46.80
2023-02-09T10:21:50.968Z,47.20
2023-02-09T10:27:13.801Z,45.40
2023-02-09T10:32:21.585Z,47.62
2023-02-09T10:37:28.943Z,46.63
2023-02-09T10:42:35.221Z,45.23
2023-02-09T10:47:40.378Z,45.65
2023-02-09T10:52:56.285Z,45.26
2023-02-09T10:58:18.731Z,45.42
2023-02-09T11:03:26.417Z,44.81
2023-02-09T11:08:44.001Z,44.71
2023-02-09T11:13:48.144Z,44.43
2023-02-09T11:19:01.338Z,42.11
2023-02-09T11:24:14.151Z,41.83
2023-02-09T11:29:29.873Z,41.78
2023-02-09T11:35:03.286Z,41.26
2023-02-09T11:40:23.193Z,40.65
2023-02-09T11:45:33.471Z,40.21
2023-02-09T11:50:44.458Z,39.68
2023-02-09T11:55:52.028Z,38.97
2023-02-09T12:01:14.784Z,38.92
2023-02-09T12:06:23.182Z,38.91
2023-02-09T12:11:36.952Z,38.57
2023-02-09T12:16:45.332Z,39.05
2023-02-09T12:21:50.520Z,39.53
2023-02-09T12:26:57.079Z,40.06
2023-02-09T12:32:37.181Z,38.34
2023-02-09T12:38:15.835Z,38.11
2023-02-09T12:43:40.988Z,37.79
2023-02-09T12:48:52.485Z,38.05
2023-02-09T12:53:57.690Z,37.65
2023-02-09T12:59:15.926Z,38.50
2023-02-09T13:04:21.645Z,38.48
2023-02-09T13:09:35.855Z,38.47
2023-02-09T13:14:40.140Z,38.49
2023-02-09T13:20:29.596Z,39.03
2023-02-09T13:25:37.159Z,38.88
2023-02-09T13:30:41.969Z,38.78
2023-02-09T13:36:03.406Z,38.42
2023-02-09T13:41:26.255Z,38.64
2023-02-09T13:46:32.274Z,39.14
2023-02-09T13:51:36.162Z,39.43
2023-02-09T13:56:42.642Z,39.65
2023-02-09T14:01:47.436Z,40.13
2023-02-09T14:06:56.145Z,39.98
2023-02-09T14:12:04.497Z,40.06
2023-02-09T14:17:24.333Z,39.81
2023-02-09T14:22:32.046Z,39.34
2023-02-09T14:27:38.150Z,38.41
2023-02-09T14:32:45.581Z,38.33
2023-02-09T14:37:50.926Z,38.62
2023-02-09T14:43:01.588Z,38.32
2023-02-09T14:48:18.035Z,37.25
2023-02-09T14:53:23.160Z,37.66
2023-02-09T14:58:31.042Z,39.04
2023-02-09T15:03:34.829Z,40.14
2023-02-09T15:08:39.269Z,41.31
2023-02-09T15:13:44.575Z,42.08
2023-02-09T15:18:48.342Z,41.32
2023-02-09T15:23:52.103Z,42.19
2023-02-09T15:28:57.309Z,44.06
2023-02-09T15:34:01.307Z,45.62
2023-02-09T15:39:08.115Z,46.97
2023-02-09T15:44:34.797Z,48.96
2023-02-09T15:49:38.573Z,49.59
2023-02-09T15:54:42.432Z,49.83
2023-02-09T15:59:48.393Z,50.61
2023-02-09T16:04:52.233Z,51.45
2023-02-09T16:09:56.057Z,52.01
2023-02-09T16:15:01.227Z,51.96
2023-02-09T16:20:08.422Z,53.43
2023-02-09T16:25:19.516Z,53.90
2023-02-09T16:30:28.015Z,53.08
2023-02-09T16:35:32.676Z,54.22
2023-02-09T16:40:36.520Z,54.44
2023-02-09T16:45:53.944Z,54.54
2023-02-09T16:51:05.866Z,55.56
2023-02-09T16:56:13.042Z,55.75
2023-02-09T17:01:21.950Z,56.84
2023-02-09T17:06:29.962Z,56.81
2023-02-09T17:11:33.803Z,57.78
2023-02-09T17:16:43.472Z,57.97
2023-02-09T17:21:47.412Z,58.30
2023-02-09T17:26:51.496Z,58.95
2023-02-09T17:31:56.973Z,59.12
2023-02-09T17:37:00.810Z,59.24
2023-02-09T17:42:05.045Z,59.75
2023-02-09T17:47:10.960Z,60.21
2023-02-09T17:52:18.475Z,60.89
2023-02-09T17:57:22.655Z,60.99
2023-02-09T18:02:27.850Z,60.02
2023-02-09T18:07:31.841Z,59.92
2023-02-09T18:12:35.723Z,60.26
2023-02-09T18:17:42.465Z,59.55
2023-02-09T18:22:46.337Z,59.58
2023-02-09T18:27:51.627Z,59.40
2023-02-09T18:32:57.347Z,59.54
2023-02-09T18:38:01.524Z,60.28
2023-02-09T18:43:06.627Z,60.85
2023-02-09T18:48:12.702Z,61.74
2023-02-09T18:53:19.297Z,62.03
2023-02-09T18:58:23.092Z,61.75
2023-02-09T19:03:28.303Z,61.78
2023-02-09T19:08:32.897Z,62.85
2023-02-09T19:13:37.700Z,62.28
2023-02-09T19:18:42.893Z,62.07
2023-02-09T19:23:46.757Z,62.86
2023-02-09T19:28:50.772Z,62.30
2023-02-09T19:33:57.802Z,61.43
2023-02-09T19:39:02.452Z,61.59
2023-02-09T19:44:06.637Z,61.33
2023-02-09T19:49:13.042Z,62.29
2023-02-09T19:54:18.412Z,62.64
2023-02-09T19:59:22.673Z,63.10
2023-02-09T20:04:27.954Z,63.13
2023-02-09T20:09:32.045Z,63.49
2023-02-09T20:14:36.472Z,63.69
2023-02-09T20:19:41.948Z,64.56
2023-02-09T20:24:45.847Z,64.41
2023-02-09T20:29:49.858Z,64.43
2023-02-09T20:34:55.520Z,64.41
2023-02-09T20:39:59.432Z,65.08
2023-02-09T20:45:20.831Z,64.87
2023-02-09T20:50:27.416Z,66.29
2023-02-09T20:55:31.284Z,65.35
2023-02-09T21:00:35.359Z,66.41
2023-02-09T21:05:40.714Z,66.62
2023-02-09T21:10:44.520Z,66.55
2023-02-09T21:15:48.816Z,67.76
2023-02-09T21:20:54.443Z,67.87
2023-02-09T21:26:02.714Z,67.67
2023-02-09T21:31:11.646Z,67.57
2023-02-09T21:36:16.928Z,66.92
2023-02-09T21:41:36.907Z,67.43
2023-02-09T21:46:41.773Z,67.77
2023-02-09T21:51:47.320Z,68.13
2023-02-09T21:56:51.097Z,67.89
2023-02-09T22:01:54.877Z,68.50
2023-02-09T22:07:00.038Z,68.56
2023-02-09T22:12:04.498Z,69.80
2023-02-09T22:17:08.339Z,70.30
2023-02-09T22:22:13.596Z,70.28
2023-02-09T22:27:17.366Z,70.49
2023-02-09T22:32:21.308Z,70.60
2023-02-09T22:37:26.494Z,71.07
2023-02-09T22:42:30.294Z,71.30
2023-02-09T22:47:34.877Z,70.92
2023-02-09T22:52:40.027Z,71.06
2023-02-09T22:57:43.789Z,70.89
2023-02-09T23:02:47.580Z,71.08
2023-02-09T23:07:52.795Z,70.25
2023-02-09T23:12:56.705Z,69.64
2023-02-09T23:18:00.437Z,68.93
2023-02-09T23:23:06.708Z,68.49
2023-02-09T23:28:10.537Z,68.27
2023-02-09T23:33:14.376Z,67.93
2023-02-09T23:38:20.170Z,67.12
2023-02-09T23:43:24.097Z,67.01
2023-02-09T23:48:27.872Z,67.42
2023-02-09T23:53:33.564Z,67.32
2023-02-09T23:58:39.273Z,67.76
